Time;durP1;ratioP1;P1;durP2;ratioP2;P2;SDS_P1;SDS_P2;PMS_P1;PMS_P2;Temp;Humidity;BMP_temperature;BMP_pressure;BME280_temperature;BME280_humidity;BME280_pressure;Samples;Min_cycle;Max_cycle;Signal;HPM_P1;HPM_P2
2022/09/08 00:01:12;;;;;;;6.30;2.40;;;;;;;;;;5082177;28;20045;-74
2022/09/08 00:03:40;;;;;;;10.15;2.67;;;;;;;;;;5076537;28;20068;-75
2022/09/08 00:06:10;;;;;;;5.18;2.38;;;;;;;;;;5078059;28;20045;-74
2022/09/08 00:08:38;;;;;;;5.90;2.38;;;;;;;;;;5082267;28;20060;-75
2022/09/08 00:11:07;;;;;;;9.23;2.30;;;;;;;;;;5075305;28;20049;-74
2022/09/08 00:13:36;;;;;;;5.25;2.20;;;;;;;;;;5070358;28;20041;-75
2022/09/08 00:16:05;;;;;;;5.60;1.80;;;;;;;;;;5072502;28;20056;-74
2022/09/08 00:18:36;;;;;;;7.20;2.30;;;;;;;;;;5082038;28;20045;-74
2022/09/08 00:21:03;;;;;;;4.07;1.98;;;;;;;;;;5080372;28;20053;-74
2022/09/08 00:23:30;;;;;;;5.57;2.20;;;;;;;;;;5075067;28;20059;-75
2022/09/08 00:25:58;;;;;;;6.20;2.60;;;;;;;;;;5072945;28;20052;-74
2022/09/08 00:28:25;;;;;;;5.50;2.63;;;;;;;;;;5076372;28;20075;-74
2022/09/08 00:30:56;;;;;;;3.33;2.63;;;;;;;;;;5074811;28;20065;-74
2022/09/08 00:33:23;;;;;;;12.48;3.83;;;;;;;;;;5071156;28;20132;-75
2022/09/08 00:35:51;;;;;;;7.80;3.75;;;;;;;;;;5078114;28;20103;-74
2022/09/08 00:38:19;;;;;;;7.82;3.40;;;;;;;;;;5087638;28;22781;-76
2022/09/08 00:40:47;;;;;;;6.75;3.45;;;;;;;;;;5079643;28;20885;-75
2022/09/08 00:43:31;;;;;;;12.88;3.30;;;;;;;;;;5081622;28;20060;-75
2022/09/08 00:46:03;;;;;;;8.23;3.20;;;;;;;;;;5072195;28;20046;-77
2022/09/08 00:48:30;;;;;;;8.15;3.00;;;;;;;;;;5078316;28;20156;-75
2022/09/08 00:50:58;;;;;;;9.07;3.42;;;;;;;;;;5078838;28;20045;-75
2022/09/08 00:53:26;;;;;;;7.43;3.03;;;;;;;;;;5079540;28;20072;-75
2022/09/08 00:55:54;;;;;;;7.82;3.35;;;;;;;;;;5074868;28;20045;-76
2022/09/08 00:58:21;;;;;;;13.57;3.30;;;;;;;;;;5082094;28;20044;-74
2022/09/08 01:00:49;;;;;;;10.05;3.15;;;;;;;;;;5070354;28;20068;-76
2022/09/08 01:03:16;;;;;;;9.27;3.33;;;;;;;;;;5068502;28;20042;-75
2022/09/08 01:05:46;;;;;;;6.68;3.83;;;;;;;;;;5086427;28;20068;-76
2022/09/08 01:14:13;;;;;;;12.32;4.18;;;;;;;;;;5069110;28;20041;-75
2022/09/08 01:16:41;;;;;;;12.68;4.40;;;;;;;;;;5068641;28;20060;-74
2022/09/08 01:19:13;;;;;;;7.28;4.18;;;;;;;;;;5068064;28;20790;-74
2022/09/08 01:21:59;;;;;;;11.10;4.13;;;;;;;;;;5066956;28;20053;-75
2022/09/08 01:24:44;;;;;;;11.60;4.03;;;;;;;;;;5070331;28;20924;-74
2022/09/08 01:27:23;;;;;;;10.00;4.80;;;;;;;;;;5067802;28;21022;-74
2022/09/08 01:29:53;;;;;;;7.20;3.60;;;;;;;;;;5074380;28;20046;-74
2022/09/08 01:32:20;;;;;;;16.25;4.38;;;;;;;;;;5073536;28;20044;-74
2022/09/08 01:34:48;;;;;;;9.05;3.97;;;;;;;;;;5069857;28;20045;-75
2022/09/08 01:37:15;;;;;;;8.13;4.28;;;;;;;;;;5064332;28;20053;-75
2022/09/08 01:39:43;;;;;;;9.93;3.97;;;;;;;;;;5075094;28;20818;-74
2022/09/08 01:42:11;;;;;;;7.78;4.20;;;;;;;;;;5068792;28;20073;-76
2022/09/08 01:44:38;;;;;;;11.88;4.47;;;;;;;;;;5074518;28;20084;-76
2022/09/08 01:47:05;;;;;;;14.98;4.82;;;;;;;;;;5074869;28;20063;-74
2022/09/08 01:49:32;;;;;;;8.93;4.53;;;;;;;;;;5074653;28;20103;-75
2022/09/08 01:51:59;;;;;;;14.00;4.57;;;;;;;;;;5076497;28;20041;-75
2022/09/08 01:54:27;;;;;;;9.95;4.50;;;;;;;;;;5081529;28;20097;-74
2022/09/08 01:56:55;;;;;;;16.75;5.45;;;;;;;;;;5077955;28;20843;-75
2022/09/08 01:59:22;;;;;;;10.63;4.75;;;;;;;;;;5072649;28;20037;-74
2022/09/08 02:01:49;;;;;;;12.05;5.63;;;;;;;;;;5069669;28;20995;-75
2022/09/08 02:04:17;;;;;;;13.27;5.47;;;;;;;;;;5067810;28;20083;-75
2022/09/08 02:06:45;;;;;;;18.60;5.63;;;;;;;;;;5064434;28;20041;-75
2022/09/08 02:09:13;;;;;;;14.95;6.38;;;;;;;;;;5062938;28;20045;-75
2022/09/08 02:11:40;;;;;;;11.85;5.07;;;;;;;;;;5065563;28;20353;-75
2022/09/08 02:14:07;;;;;;;15.95;6.10;;;;;;;;;;5069408;28;20127;-76
2022/09/08 02:16:34;;;;;;;18.63;5.72;;;;;;;;;;5067962;28;20038;-76
2022/09/08 02:19:02;;;;;;;17.90;5.85;;;;;;;;;;5058550;28;20136;-76
2022/09/08 02:21:29;;;;;;;13.80;4.85;;;;;;;;;;5061240;28;20092;-76
2022/09/08 02:23:56;;;;;;;12.15;4.93;;;;;;;;;;5072311;28;20495;-75
2022/09/08 02:26:26;;;;;;;15.07;5.80;;;;;;;;;;5064537;28;20054;-75
2022/09/08 02:28:53;;;;;;;14.25;6.50;;;;;;;;;;5080071;28;20132;-76
2022/09/08 02:31:25;;;;;;;9.30;5.85;;;;;;;;;;5073439;28;20072;-76
2022/09/08 02:33:53;;;;;;;14.63;6.22;;;;;;;;;;5069341;28;20053;-76
2022/09/08 02:36:21;;;;;;;17.65;6.22;;;;;;;;;;5066687;28;20041;-76
2022/09/08 02:38:49;;;;;;;20.40;6.88;;;;;;;;;;5076380;28;20099;-80
2022/09/08 02:41:17;;;;;;;15.35;6.50;;;;;;;;;;5072118;28;20100;-76
2022/09/08 02:43:44;;;;;;;12.52;5.70;;;;;;;;;;5065028;28;20075;-76
2022/09/08 02:46:12;;;;;;;19.73;6.32;;;;;;;;;;5064893;28;20045;-76
2022/09/08 02:48:40;;;;;;;16.30;5.82;;;;;;;;;;5069167;28;21822;-75
2022/09/08 02:51:08;;;;;;;15.13;5.93;;;;;;;;;;5068266;28;20151;-76
2022/09/08 02:53:36;;;;;;;17.73;6.45;;;;;;;;;;5068306;28;20071;-76
2022/09/08 02:56:04;;;;;;;23.40;6.22;;;;;;;;;;5071069;28;20050;-75
2022/09/08 02:58:32;;;;;;;16.23;5.85;;;;;;;;;;5075371;28;20049;-76
2022/09/08 03:00:59;;;;;;;11.13;5.70;;;;;;;;;;5069897;28;20067;-77
2022/09/08 03:03:26;;;;;;;28.92;6.65;;;;;;;;;;5067289;28;20041;-76
2022/09/08 03:05:54;;;;;;;21.15;6.53;;;;;;;;;;5072610;28;20056;-75
2022/09/08 03:08:22;;;;;;;21.00;7.00;;;;;;;;;;5062424;28;20049;-76
2022/09/08 03:10:49;;;;;;;18.63;6.60;;;;;;;;;;5069450;28;20053;-75
2022/09/08 03:13:17;;;;;;;23.60;6.95;;;;;;;;;;5073886;28;20068;-76
2022/09/08 03:15:44;;;;;;;17.50;6.88;;;;;;;;;;5073388;28;20052;-76
2022/09/08 03:18:11;;;;;;;19.08;6.75;;;;;;;;;;5082748;28;20034;-78
2022/09/08 03:20:40;;;;;;;21.20;7.20;;;;;;;;;;5079460;28;20041;-80
2022/09/08 03:23:07;;;;;;;13.50;7.05;;;;;;;;;;5083052;28;20037;-77
2022/09/08 03:25:35;;;;;;;16.73;6.93;;;;;;;;;;5085549;28;20038;-77
2022/09/08 03:28:07;;;;;;;21.85;7.47;;;;;;;;;;5079621;28;20037;-78
2022/09/08 03:30:34;;;;;;;18.77;7.40;;;;;;;;;;5078285;28;20099;-77
2022/09/08 03:33:01;;;;;;;21.27;7.38;;;;;;;;;;5068137;28;20041;-76
2022/09/08 03:35:28;;;;;;;19.38;7.65;;;;;;;;;;5073613;28;20931;-77
2022/09/08 03:37:55;;;;;;;22.50;7.90;;;;;;;;;;5072035;28;20033;-77
2022/09/08 03:40:22;;;;;;;14.55;6.45;;;;;;;;;;5073394;28;20054;-78
2022/09/08 03:42:50;;;;;;;15.43;7.53;;;;;;;;;;5069128;28;20064;-76
2022/09/08 03:45:18;;;;;;;14.68;6.45;;;;;;;;;;5062487;28;20056;-77
2022/09/08 03:47:46;;;;;;;17.15;7.47;;;;;;;;;;5071475;28;20095;-76
2022/09/08 03:50:14;;;;;;;20.65;7.53;;;;;;;;;;5066207;28;20072;-77
2022/09/08 03:52:41;;;;;;;11.88;6.25;;;;;;;;;;5079910;28;20048;-76
2022/09/08 03:55:09;;;;;;;11.05;6.55;;;;;;;;;;5076060;28;20053;-76
2022/09/08 03:57:37;;;;;;;12.45;6.93;;;;;;;;;;5071291;28;20037;-77
2022/09/08 04:00:06;;;;;;;20.88;9.02;;;;;;;;;;5071953;28;20088;-77
2022/09/08 04:02:33;;;;;;;12.98;7.30;;;;;;;;;;5072107;28;20041;-76
2022/09/08 04:05:01;;;;;;;17.42;7.75;;;;;;;;;;5077355;28;20049;-76
2022/09/08 04:07:29;;;;;;;18.38;7.80;;;;;;;;;;5072777;28;20056;-78
2022/09/08 04:09:57;;;;;;;19.38;7.90;;;;;;;;;;5078775;28;20076;-76
2022/09/08 04:12:25;;;;;;;19.42;8.02;;;;;;;;;;5075066;28;20057;-78
2022/09/08 04:14:53;;;;;;;17.48;7.60;;;;;;;;;;5074344;28;20075;-75
2022/09/08 04:17:21;;;;;;;15.32;6.07;;;;;;;;;;5085964;28;20048;-78
2022/09/08 04:19:50;;;;;;;22.00;6.85;;;;;;;;;;5091517;28;20049;-77
2022/09/08 04:22:22;;;;;;;12.52;5.78;;;;;;;;;;5078267;28;20037;-79
2022/09/08 04:24:49;;;;;;;20.65;6.25;;;;;;;;;;5077095;28;20041;-76
2022/09/08 04:27:22;;;;;;;10.82;6.00;;;;;;;;;;5092105;28;20033;-78
2022/09/08 04:29:50;;;;;;;16.50;6.25;;;;;;;;;;5083319;28;20041;-77
2022/09/08 04:32:18;;;;;;;20.85;6.88;;;;;;;;;;5085329;28;20061;-77
2022/09/08 04:34:49;;;;;;;13.43;5.88;;;;;;;;;;5070006;28;20049;-77
2022/09/08 04:37:17;;;;;;;14.30;6.75;;;;;;;;;;5077340;28;20049;-79
2022/09/08 04:39:44;;;;;;;18.90;6.95;;;;;;;;;;5084327;28;20092;-78
2022/09/08 04:42:11;;;;;;;12.43;6.50;;;;;;;;;;5080365;28;20045;-78
2022/09/08 04:44:39;;;;;;;14.73;7.18;;;;;;;;;;5086893;28;20037;-78
2022/09/08 04:47:06;;;;;;;13.88;6.05;;;;;;;;;;5084989;28;20091;-76
2022/09/08 04:49:33;;;;;;;19.88;6.93;;;;;;;;;;5079729;28;20099;-76
2022/09/08 04:52:00;;;;;;;17.30;7.03;;;;;;;;;;5077248;28;20480;-77
2022/09/08 04:54:27;;;;;;;22.88;6.90;;;;;;;;;;5078654;28;20045;-77
2022/09/08 04:56:54;;;;;;;17.83;7.15;;;;;;;;;;5077139;28;20059;-78
2022/09/08 04:59:21;;;;;;;15.88;6.20;;;;;;;;;;5077567;28;20041;-77
2022/09/08 05:01:49;;;;;;;22.00;7.50;;;;;;;;;;5076304;28;20100;-77
2022/09/08 05:04:16;;;;;;;22.25;7.47;;;;;;;;;;5075551;28;20059;-76
2022/09/08 05:06:44;;;;;;;13.73;7.32;;;;;;;;;;5067199;28;20049;-76
2022/09/08 05:09:13;;;;;;;16.30;7.80;;;;;;;;;;5078398;28;20049;-75
2022/09/08 05:11:40;;;;;;;14.52;7.47;;;;;;;;;;5076450;28;20076;-77
2022/09/08 05:14:07;;;;;;;14.95;8.13;;;;;;;;;;5073072;28;20049;-76
2022/09/08 05:16:35;;;;;;;18.58;7.90;;;;;;;;;;5067430;28;20049;-76
2022/09/08 05:19:04;;;;;;;16.30;8.23;;;;;;;;;;5073097;28;20145;-76
2022/09/08 05:21:33;;;;;;;20.50;8.18;;;;;;;;;;5075067;28;20049;-78
2022/09/08 05:24:00;;;;;;;17.85;7.93;;;;;;;;;;5079680;28;20101;-77
2022/09/08 05:26:28;;;;;;;23.23;8.27;;;;;;;;;;5085169;28;20890;-77
2022/09/08 05:28:55;;;;;;;19.25;7.80;;;;;;;;;;5088349;28;20045;-76
2022/09/08 05:31:24;;;;;;;19.52;8.20;;;;;;;;;;5088289;28;20045;-79
2022/09/08 05:33:52;;;;;;;22.85;7.93;;;;;;;;;;5077160;28;20051;-76
2022/09/08 05:36:21;;;;;;;18.30;7.65;;;;;;;;;;5074044;28;20040;-77
2022/09/08 05:38:49;;;;;;;19.88;7.38;;;;;;;;;;5074447;28;20049;-78
2022/09/08 05:41:16;;;;;;;33.83;8.48;;;;;;;;;;5075544;28;20898;-77
2022/09/08 05:43:45;;;;;;;23.23;7.93;;;;;;;;;;5083405;28;20038;-76
2022/09/08 05:46:13;;;;;;;35.33;8.82;;;;;;;;;;5075862;28;20085;-77
2022/09/08 05:48:44;;;;;;;19.60;8.02;;;;;;;;;;5072138;28;20049;-77
2022/09/08 05:51:13;;;;;;;21.98;7.75;;;;;;;;;;5071548;28;20049;-77
2022/09/08 05:53:40;;;;;;;24.85;8.35;;;;;;;;;;5075294;28;20053;-78
2022/09/08 05:56:08;;;;;;;17.17;8.07;;;;;;;;;;5067177;28;20050;-77
2022/09/08 05:58:36;;;;;;;19.58;8.68;;;;;;;;;;5076518;28;20049;-79
2022/09/08 06:01:08;;;;;;;21.92;8.60;;;;;;;;;;5070088;28;20105;-77
2022/09/08 06:03:36;;;;;;;23.83;8.85;;;;;;;;;;5052214;28;20958;-77
2022/09/08 06:06:08;;;;;;;20.38;8.35;;;;;;;;;;5073529;28;20049;-78
2022/09/08 06:08:37;;;;;;;21.38;8.15;;;;;;;;;;5073770;28;20055;-77
2022/09/08 06:11:05;;;;;;;24.63;9.27;;;;;;;;;;5075442;28;20140;-78
2022/09/08 06:13:33;;;;;;;17.75;8.82;;;;;;;;;;5075097;28;20068;-77
2022/09/08 06:16:05;;;;;;;28.05;10.48;;;;;;;;;;5072955;28;20029;-78
2022/09/08 06:18:33;;;;;;;19.33;8.55;;;;;;;;;;5071500;28;20108;-77
2022/09/08 06:21:04;;;;;;;25.10;9.82;;;;;;;;;;5061767;28;20052;-78
2022/09/08 06:23:31;;;;;;;21.83;8.48;;;;;;;;;;5071262;28;20075;-77
2022/09/08 06:25:58;;;;;;;24.40;9.52;;;;;;;;;;5066336;28;20029;-78
2022/09/08 06:28:29;;;;;;;24.10;8.88;;;;;;;;;;5074218;28;20311;-78
2022/09/08 06:30:57;;;;;;;21.40;9.52;;;;;;;;;;5068574;28;20137;-76
2022/09/08 06:33:29;;;;;;;24.58;9.85;;;;;;;;;;5067348;28;20199;-77
2022/09/08 06:36:09;;;;;;;33.15;10.57;;;;;;;;;;5067841;28;20067;-76
2022/09/08 06:38:42;;;;;;;22.33;10.05;;;;;;;;;;5064081;28;20057;-77
2022/09/08 06:41:13;;;;;;;28.42;11.02;;;;;;;;;;5068230;28;20050;-78
2022/09/08 06:43:42;;;;;;;22.23;9.75;;;;;;;;;;5063741;28;20061;-77
2022/09/08 06:46:19;;;;;;;35.80;11.55;;;;;;;;;;5067180;28;20068;-76
2022/09/08 06:48:46;;;;;;;17.35;10.00;;;;;;;;;;5050377;28;20080;-77
2022/09/08 06:51:28;;;;;;;16.83;9.07;;;;;;;;;;5070410;28;20053;-76
2022/09/08 06:54:16;;;;;;;24.50;10.23;;;;;;;;;;5064088;28;20723;-77
2022/09/08 06:56:55;;;;;;;25.85;9.55;;;;;;;;;;5069167;28;20060;-77
2022/09/08 06:59:42;;;;;;;13.45;7.38;;;;;;;;;;5051861;28;20140;-77
2022/09/08 07:02:20;;;;;;;25.55;9.88;;;;;;;;;;5070469;28;20071;-77
2022/09/08 07:04:53;;;;;;;20.02;8.50;;;;;;;;;;5045519;28;20048;-78
2022/09/08 07:07:27;;;;;;;27.35;8.55;;;;;;;;;;5067264;28;20056;-78
2022/09/08 07:09:59;;;;;;;21.77;9.48;;;;;;;;;;5068007;28;20169;-77
2022/09/08 07:12:38;;;;;;;23.17;9.57;;;;;;;;;;5067824;28;20053;-79
2022/09/08 07:15:32;;;;;;;21.35;8.98;;;;;;;;;;5073828;28;20045;-77
2022/09/08 07:17:59;;;;;;;20.63;8.32;;;;;;;;;;5068920;28;20072;-80
2022/09/08 07:20:28;;;;;;;17.48;8.65;;;;;;;;;;5080492;28;20041;-77
2022/09/08 07:22:55;;;;;;;45.47;11.45;;;;;;;;;;5080282;28;20068;-78
2022/09/08 07:25:28;;;;;;;23.27;10.35;;;;;;;;;;5082145;28;20037;-79
2022/09/08 07:28:09;;;;;;;24.92;10.80;;;;;;;;;;5082768;28;20049;-78
2022/09/08 07:30:39;;;;;;;28.38;11.00;;;;;;;;;;5084870;28;20029;-81
2022/09/08 07:33:19;;;;;;;27.40;12.02;;;;;;;;;;5081331;28;20045;-78
2022/09/08 07:36:10;;;;;;;28.25;12.15;;;;;;;;;;5083830;28;20048;-80
2022/09/08 07:38:49;;;;;;;26.63;11.60;;;;;;;;;;5083055;28;20029;-77
2022/09/08 07:41:23;;;;;;;22.98;11.27;;;;;;;;;;5064144;28;20053;-79
2022/09/08 07:43:55;;;;;;;23.25;11.88;;;;;;;;;;5075254;28;20053;-78
2022/09/08 07:46:29;;;;;;;24.17;12.25;;;;;;;;;;5077149;28;20041;-78
2022/09/08 07:49:06;;;;;;;46.90;14.20;;;;;;;;;;5061559;28;20048;-79
2022/09/08 07:51:40;;;;;;;35.38;13.07;;;;;;;;;;5083488;28;20069;-78
2022/09/08 07:54:15;;;;;;;23.08;11.32;;;;;;;;;;5063404;28;20144;-77
2022/09/08 07:56:45;;;;;;;29.48;11.05;;;;;;;;;;5058984;28;20105;-78
2022/09/08 07:59:47;;;;;;;20.88;10.70;;;;;;;;;;5083598;28;20049;-81
2022/09/08 08:02:36;;;;;;;24.58;10.90;;;;;;;;;;5086364;28;20131;-78
2022/09/08 08:05:17;;;;;;;23.45;10.60;;;;;;;;;;5081527;28;20042;-81
2022/09/08 08:07:50;;;;;;;35.97;12.75;;;;;;;;;;5085038;28;20045;-77
2022/09/08 08:10:17;;;;;;;;;;;;;;;;;;5089894;28;20102;-78
2022/09/08 08:12:48;;;;;;;20.65;10.43;;;;;;;;;;5089412;28;43799;-80
2022/09/08 08:15:34;;;;;;;21.23;10.75;;;;;;;;;;5090899;27;20041;-78
2022/09/08 08:18:26;;;;;;;24.02;11.95;;;;;;;;;;5086245;28;20049;-77
2022/09/08 08:21:02;;;;;;;26.08;12.15;;;;;;;;;;5080052;28;20105;-80
2022/09/08 08:23:32;;;;;;;22.77;12.73;;;;;;;;;;5067811;28;20045;-78
2022/09/08 08:26:17;;;;;;;22.88;12.65;;;;;;;;;;5082623;28;20053;-77
2022/09/08 08:28:45;;;;;;;21.00;12.88;;;;;;;;;;5072640;28;20049;-76
2022/09/08 08:31:27;;;;;;;21.42;12.02;;;;;;;;;;5077100;28;20057;-78
2022/09/08 08:33:58;;;;;;;17.40;11.88;;;;;;;;;;5076032;28;20060;-76
2022/09/08 08:36:30;;;;;;;18.83;11.85;;;;;;;;;;5053719;28;20147;-78
2022/09/08 08:39:06;;;;;;;23.60;12.63;;;;;;;;;;5078488;28;20040;-77
2022/09/08 08:41:47;;;;;;;26.85;12.77;;;;;;;;;;5078391;28;20042;-77
2022/09/08 08:44:33;;;;;;;17.10;10.88;;;;;;;;;;5077273;28;20077;-77
2022/09/08 08:47:07;;;;;;;17.98;10.93;;;;;;;;;;5077024;28;20041;-77
2022/09/08 08:49:39;;;;;;;15.60;8.95;;;;;;;;;;5078276;28;20037;-77
2022/09/08 08:52:13;;;;;;;18.10;10.90;;;;;;;;;;5082838;28;20040;-78
2022/09/08 08:55:00;;;;;;;17.52;10.13;;;;;;;;;;5078521;28;20053;-77
2022/09/08 08:57:36;;;;;;;18.48;10.27;;;;;;;;;;5082640;28;20105;-76
2022/09/08 09:00:15;;;;;;;21.38;10.60;;;;;;;;;;5083679;28;20045;-77
2022/09/08 09:02:53;;;;;;;18.05;10.05;;;;;;;;;;5080294;28;20045;-76
2022/09/08 09:05:20;;;;;;;16.08;10.65;;;;;;;;;;5087065;28;20049;-76
2022/09/08 09:07:53;;;;;;;16.50;10.80;;;;;;;;;;5089564;28;20078;-77
2022/09/08 09:10:39;;;;;;;17.70;11.40;;;;;;;;;;5079251;28;20077;-79
2022/09/08 09:13:26;;;;;;;23.77;13.80;;;;;;;;;;5089870;27;20093;-77
2022/09/08 09:16:12;;;;;;;23.67;14.23;;;;;;;;;;5088378;28;20041;-76
2022/09/08 09:19:03;;;;;;;21.88;14.18;;;;;;;;;;5086285;28;20081;-76
2022/09/08 09:21:39;;;;;;;21.05;13.15;;;;;;;;;;5068592;28;20026;-75
2022/09/08 09:24:10;;;;;;;18.17;12.70;;;;;;;;;;5083596;28;20022;-77
2022/09/08 09:26:45;;;;;;;21.08;12.52;;;;;;;;;;5090302;28;20690;-77
2022/09/08 09:29:14;;;;;;;20.58;12.70;;;;;;;;;;5085853;28;20094;-77
2022/09/08 09:31:44;;;;;;;15.32;11.20;;;;;;;;;;5085258;28;20033;-75
2022/09/08 09:34:31;;;;;;;13.45;11.05;;;;;;;;;;5068933;28;20165;-76
2022/09/08 09:37:17;;;;;;;14.38;10.30;;;;;;;;;;5088047;28;20034;-78
2022/09/08 09:40:05;;;;;;;11.20;8.23;;;;;;;;;;5085409;28;20049;-76
2022/09/08 09:42:48;;;;;;;11.27;6.60;;;;;;;;;;5085041;28;20104;-76
2022/09/08 09:45:26;;;;;;;9.50;6.17;;;;;;;;;;5083412;28;20041;-75
2022/09/08 09:48:07;;;;;;;8.63;5.55;;;;;;;;;;5083587;27;20048;-75
2022/09/08 09:50:58;;;;;;;10.60;5.30;;;;;;;;;;5083115;28;20049;-74
2022/09/08 09:53:33;;;;;;;7.55;4.60;;;;;;;;;;5082693;28;20055;-77
2022/09/08 09:56:20;;;;;;;9.55;5.13;;;;;;;;;;5085701;27;20034;-77
2022/09/08 09:58:50;;;;;;;7.70;5.20;;;;;;;;;;5087045;28;20918;-75
2022/09/08 10:01:44;;;;;;;8.15;4.93;;;;;;;;;;5080699;28;20069;-76
2022/09/08 10:04:15;;;;;;;6.03;4.20;;;;;;;;;;5068613;28;20052;-75
2022/09/08 10:06:43;;;;;;;7.35;4.07;;;;;;;;;;5084212;28;20052;-74
2022/09/08 10:09:33;;;;;;;9.73;3.85;;;;;;;;;;5084364;28;20075;-74
2022/09/08 10:12:20;;;;;;;6.55;3.20;;;;;;;;;;5083618;28;20075;-77
2022/09/08 10:15:02;;;;;;;6.95;2.90;;;;;;;;;;5080717;28;20048;-75
2022/09/08 10:17:48;;;;;;;5.30;3.08;;;;;;;;;;5077487;28;20040;-75
2022/09/08 10:20:22;;;;;;;6.85;3.17;;;;;;;;;;5079333;28;20029;-74
2022/09/08 10:22:49;;;;;;;7.22;3.70;;;;;;;;;;5080582;28;20048;-75
2022/09/08 10:25:38;;;;;;;7.22;3.97;;;;;;;;;;5079166;28;20043;-76
2022/09/08 10:28:38;;;;;;;6.43;4.07;;;;;;;;;;5077445;28;20059;-75
2022/09/08 10:31:06;;;;;;;7.43;3.50;;;;;;;;;;5073689;28;20052;-75
2022/09/08 10:33:52;;;;;;;6.70;3.90;;;;;;;;;;5071303;28;20147;-74
2022/09/08 10:36:28;;;;;;;8.40;4.68;;;;;;;;;;5075288;28;20041;-74
2022/09/08 10:39:18;;;;;;;7.80;4.47;;;;;;;;;;5053136;28;20053;-74
2022/09/08 10:42:04;;;;;;;7.22;4.63;;;;;;;;;;4989146;28;20054;-75
2022/09/08 10:44:40;;;;;;;6.72;4.32;;;;;;;;;;4995169;28;20835;-75
2022/09/08 10:47:36;;;;;;;8.98;4.28;;;;;;;;;;4994927;28;20999;-76
2022/09/08 10:50:18;;;;;;;9.27;4.10;;;;;;;;;;4997056;28;20149;-75
2022/09/08 10:53:13;;;;;;;10.10;4.07;;;;;;;;;;4992121;28;20078;-74
2022/09/08 10:55:52;;;;;;;9.57;4.50;;;;;;;;;;4992408;28;20050;-73
2022/09/08 10:58:38;;;;;;;7.65;3.78;;;;;;;;;;4997715;28;20054;-75
2022/09/08 11:01:15;;;;;;;7.63;4.10;;;;;;;;;;4976814;28;20034;-75
2022/09/08 11:03:45;;;;;;;11.48;4.75;;;;;;;;;;4990745;28;20135;-78
2022/09/08 11:06:19;;;;;;;13.05;6.05;;;;;;;;;;4988012;28;20046;-76
2022/09/08 11:08:59;;;;;;;15.57;6.43;;;;;;;;;;4993888;28;20051;-75
2022/09/08 11:11:52;;;;;;;11.02;6.90;;;;;;;;;;4992295;28;20051;-75
2022/09/08 11:14:34;;;;;;;15.60;7.32;;;;;;;;;;4999134;28;20047;-75
2022/09/08 11:17:09;;;;;;;15.77;7.35;;;;;;;;;;4990866;28;20058;-76
2022/09/08 11:19:48;;;;;;;11.18;7.18;;;;;;;;;;5053739;28;20064;-75
2022/09/08 11:22:34;;;;;;;16.55;7.25;;;;;;;;;;5071255;28;20801;-77
2022/09/08 11:25:02;;;;;;;16.80;7.25;;;;;;;;;;5056938;28;20053;-77
2022/09/08 11:27:38;;;;;;;9.77;6.22;;;;;;;;;;5059431;28;20041;-76
2022/09/08 11:30:22;;;;;;;8.30;5.80;;;;;;;;;;5067540;28;20049;-77
2022/09/08 11:32:50;;;;;;;12.02;5.28;;;;;;;;;;5077049;28;20056;-74
2022/09/08 11:35:17;;;;;;;12.05;6.15;;;;;;;;;;5081614;28;20218;-77
2022/09/08 11:37:50;;;;;;;7.82;4.15;;;;;;;;;;5084635;28;20106;-76
2022/09/08 11:40:17;;;;;;;;;;;;;;;;;;5083062;28;20041;-76
2022/09/08 11:42:47;;;;;;;8.95;3.85;;;;;;;;;;5082116;28;44490;-74
2022/09/08 11:45:22;;;;;;;10.00;4.82;;;;;;;;;;5079126;28;20049;-77
2022/09/08 11:47:52;;;;;;;9.05;4.53;;;;;;;;;;5078694;28;20049;-76
2022/09/08 11:50:31;;;;;;;11.60;3.80;;;;;;;;;;5071635;28;20049;-76
2022/09/08 11:53:17;;;;;;;11.70;2.50;;;;;;;;;;5073085;28;20033;-75
2022/09/08 11:56:16;;;;;;;10.80;2.70;;;;;;;;;;5074465;28;20095;-74
2022/09/08 11:58:50;;;;;;;7.43;2.55;;;;;;;;;;5070588;28;20045;-75
2022/09/08 12:01:34;;;;;;;10.82;2.40;;;;;;;;;;5066160;28;20061;-75
2022/09/08 12:04:07;;;;;;;10.43;2.47;;;;;;;;;;5064707;28;20073;-74
2022/09/08 12:06:43;;;;;;;10.27;2.45;;;;;;;;;;5067792;28;20118;-75
2022/09/08 12:09:22;;;;;;;8.75;2.30;;;;;;;;;;5071096;28;20901;-74
2022/09/08 12:11:50;;;;;;;7.22;2.30;;;;;;;;;;5051290;28;20045;-74
2022/09/08 12:14:22;;;;;;;10.95;2.55;;;;;;;;;;5063173;28;20101;-73
2022/09/08 12:17:07;;;;;;;12.45;2.80;;;;;;;;;;5064242;28;20057;-75
2022/09/08 12:19:34;;;;;;;;;;;;;;;;;;5075752;28;20845;-75
2022/09/08 12:22:20;;;;;;;6.10;2.03;;;;;;;;;;5062536;28;43701;-73
2022/09/08 12:25:00;;;;;;;12.13;2.40;;;;;;;;;;5066561;28;20053;-76
2022/09/08 12:28:05;;;;;;;11.30;2.70;;;;;;;;;;5065519;28;20808;-73
2022/09/08 12:30:38;;;;;;;6.90;2.20;;;;;;;;;;5066435;28;20052;-74
2022/09/08 12:33:06;;;;;;;8.70;2.33;;;;;;;;;;5059640;28;20050;-75
2022/09/08 12:35:34;;;;;;;5.65;2.25;;;;;;;;;;5068511;28;20057;-74
2022/09/08 12:38:24;;;;;;;11.82;2.20;;;;;;;;;;5064151;28;20049;-74
2022/09/08 12:40:57;;;;;;;10.07;2.47;;;;;;;;;;5061854;28;21155;-75
2022/09/08 12:43:25;;;;;;;4.93;2.10;;;;;;;;;;5072352;28;20049;-74
2022/09/08 12:45:59;;;;;;;11.13;2.47;;;;;;;;;;5071136;28;20045;-73
2022/09/08 12:48:34;;;;;;;6.13;2.50;;;;;;;;;;5073219;28;20075;-73
2022/09/08 12:51:08;;;;;;;10.75;2.53;;;;;;;;;;5070233;28;20092;-73
2022/09/08 12:53:41;;;;;;;8.45;2.58;;;;;;;;;;5067497;28;20045;-74
2022/09/08 12:56:26;;;;;;;8.25;1.90;;;;;;;;;;5062512;28;20046;-75
2022/09/08 12:59:03;;;;;;;6.13;2.13;;;;;;;;;;5066387;28;20060;-73
2022/09/08 13:01:51;;;;;;;9.95;2.30;;;;;;;;;;5071829;28;20056;-73
2022/09/08 13:04:21;;;;;;;9.63;2.72;;;;;;;;;;5061665;28;20037;-73
2022/09/08 13:07:03;;;;;;;7.32;2.50;;;;;;;;;;5050482;28;20107;-74
2022/09/08 13:09:33;;;;;;;8.57;2.40;;;;;;;;;;5066253;28;20052;-73
2022/09/08 13:12:16;;;;;;;4.35;1.80;;;;;;;;;;5076037;28;20053;-75
2022/09/08 13:14:46;;;;;;;9.80;2.10;;;;;;;;;;5074642;28;20096;-74
2022/09/08 13:17:17;;;;;;;7.30;2.20;;;;;;;;;;5072261;28;20053;-74
2022/09/08 13:19:54;;;;;;;8.60;2.22;;;;;;;;;;5071891;28;20148;-74
2022/09/08 13:22:27;;;;;;;9.00;1.95;;;;;;;;;;5072378;28;20104;-73
2022/09/08 13:25:09;;;;;;;7.18;1.83;;;;;;;;;;5048980;28;20946;-75
2022/09/08 13:27:54;;;;;;;10.80;2.50;;;;;;;;;;5067934;28;20088;-76
2022/09/08 13:30:23;;;;;;;9.93;2.08;;;;;;;;;;5066202;28;20053;-75
2022/09/08 13:32:59;;;;;;;7.93;1.90;;;;;;;;;;5065017;28;20072;-74
2022/09/08 13:35:39;;;;;;;10.25;1.73;;;;;;;;;;5067147;28;20144;-74
2022/09/08 13:38:14;;;;;;;9.90;1.88;;;;;;;;;;5065383;28;20057;-74
2022/09/08 13:40:53;;;;;;;4.60;1.50;;;;;;;;;;5057888;28;20053;-73
2022/09/08 13:43:20;;;;;;;7.05;1.80;;;;;;;;;;5066517;28;20770;-74
2022/09/08 13:46:06;;;;;;;9.52;2.05;;;;;;;;;;5063420;28;20052;-73
2022/09/08 13:48:43;;;;;;;9.77;1.88;;;;;;;;;;5070948;28;21225;-75
2022/09/08 13:51:40;;;;;;;7.97;1.75;;;;;;;;;;5071177;28;20053;-74
2022/09/08 13:54:26;;;;;;;4.35;1.65;;;;;;;;;;4992205;28;20071;-75
2022/09/08 13:56:58;;;;;;;6.80;2.17;;;;;;;;;;4993496;28;20188;-74
2022/09/08 13:59:35;;;;;;;9.88;1.98;;;;;;;;;;4991221;28;20047;-75
2022/09/08 14:02:16;;;;;;;5.00;1.83;;;;;;;;;;4986324;28;20549;-74
2022/09/08 14:04:46;;;;;;;8.13;1.73;;;;;;;;;;4990871;28;20097;-74
2022/09/08 14:07:13;;;;;;;7.22;1.90;;;;;;;;;;4990680;28;20059;-73
2022/09/08 14:09:41;;;;;;;5.25;1.40;;;;;;;;;;4985323;28;20051;-72
2022/09/08 14:12:16;;;;;;;9.15;1.85;;;;;;;;;;4988785;28;20055;-74
2022/09/08 14:14:43;;;;;;;8.95;1.80;;;;;;;;;;4985328;28;20066;-73
2022/09/08 14:17:20;;;;;;;8.93;1.80;;;;;;;;;;4990940;28;20050;-74
2022/09/08 14:19:53;;;;;;;6.18;1.70;;;;;;;;;;4987767;28;20063;-73
2022/09/08 14:22:20;;;;;;;;;;;;;;;;;;4987771;28;20496;-75
2022/09/08 14:25:10;;;;;;;6.13;1.95;;;;;;;;;;4991098;28;44021;-74
2022/09/08 14:27:52;;;;;;;7.60;1.98;;;;;;;;;;4965988;28;20068;-74
2022/09/08 14:30:20;;;;;;;8.25;1.90;;;;;;;;;;4983401;28;20157;-76
2022/09/08 14:32:52;;;;;;;7.15;1.67;;;;;;;;;;5025394;28;20042;-74
2022/09/08 14:35:22;;;;;;;5.93;1.67;;;;;;;;;;5010455;28;20118;-75
2022/09/08 14:38:12;;;;;;;9.02;1.58;;;;;;;;;;5020048;28;20058;-74
2022/09/08 14:40:48;;;;;;;5.28;1.38;;;;;;;;;;5003845;28;20043;-75
2022/09/08 14:43:36;;;;;;;4.95;1.55;;;;;;;;;;5005564;28;20070;-76
2022/09/08 14:46:04;;;;;;;6.05;1.67;;;;;;;;;;5001283;28;20058;-74
2022/09/08 14:48:36;;;;;;;4.75;1.50;;;;;;;;;;5002786;28;20051;-75
2022/09/08 14:51:04;;;;;;;4.68;1.75;;;;;;;;;;5004257;28;20065;-73
2022/09/08 14:53:31;;;;;;;6.70;2.00;;;;;;;;;;5005849;28;20051;-75
2022/09/08 14:56:01;;;;;;;5.40;1.20;;;;;;;;;;5008545;28;20082;-74
2022/09/08 14:58:43;;;;;;;4.22;1.52;;;;;;;;;;5002980;28;20034;-76
2022/09/08 15:01:24;;;;;;;5.28;1.40;;;;;;;;;;5008744;28;20031;-77
2022/09/08 15:04:03;;;;;;;4.68;1.42;;;;;;;;;;5009436;28;20050;-74
2022/09/08 15:06:46;;;;;;;4.53;1.10;;;;;;;;;;5028704;28;20034;-77
2022/09/08 15:09:31;;;;;;;7.90;1.57;;;;;;;;;;5029809;28;20031;-76
2022/09/08 15:12:10;;;;;;;8.57;1.58;;;;;;;;;;5012466;28;20105;-76
2022/09/08 15:15:06;;;;;;;9.10;1.95;;;;;;;;;;5030511;28;20046;-75
2022/09/08 15:17:35;;;;;;;5.90;1.38;;;;;;;;;;4988299;28;21078;-74